Terminal Aerodrome Forecast
Issued by NWS Wilmington, OH

Current Version | Previous Version | Graphics & Text | Print | Product List | Glossary On
Versions: 1 2 3 4 5 6 7 8 9 10 11 12 13 14 15 16 17
000
FTUS41 KILN 202329
TAFCMH
TAF
KCMH 202329Z 2100/2124 23014G20KT 5SM -SHRA BKN050
      TEMPO 2100/2103 2SM TSRA OVC025CB
     FM210300 22012KT 5SM -SHRA VCTS OVC050CB
     FM210500 24012KT P6SM VCSH BKN025
     FM210600 26012KT P6SM BKN019
     FM210900 32010KT P6SM BKN035
     FM211700 30009KT P6SM BKN080=

USA.gov is the U.S. government's official web portal to all federal, state and local government web resources and services.